sensor_id;sensor_type;location;lat;lon;timestamp;pressure;altitude;pressure_sealevel;temperature;humidity
17260;BME280;8746;49.230;9.220;2023-02-13T00:01:14;102053.75;;;1.07;100.00
17260;BME280;8746;49.230;9.220;2023-02-13T00:03:39;102050.16;;;1.04;100.00
17260;BME280;8746;49.230;9.220;2023-02-13T00:06:05;102050.78;;;0.96;100.00
17260;BME280;8746;49.230;9.220;2023-02-13T00:08:30;102041.50;;;1.03;100.00
17260;BME280;8746;49.230;9.220;2023-02-13T00:10:56;102033.16;;;1.14;100.00
17260;BME280;8746;49.230;9.220;2023-02-13T00:13:21;102030.03;;;1.24;100.00
17260;BME280;8746;49.230;9.220;2023-02-13T00:15:58;102039.88;;;1.34;100.00
17260;BME280;8746;49.230;9.220;2023-02-13T00:18:26;102038.84;;;1.29;100.00
17260;BME280;8746;49.230;9.220;2023-02-13T00:20:59;102033.75;;;1.32;100.00
17260;BME280;8746;49.230;9.220;2023-02-13T00:23:25;102038.75;;;1.26;100.00
17260;BME280;8746;49.230;9.220;2023-02-13T00:25:50;102034.25;;;1.20;100.00
17260;BME280;8746;49.230;9.220;2023-02-13T00:28:15;102034.53;;;1.30;100.00
17260;BME280;8746;49.230;9.220;2023-02-13T00:30:40;102026.78;;;1.31;100.00
17260;BME280;8746;49.230;9.220;2023-02-13T00:33:06;102034.41;;;1.25;100.00
17260;BME280;8746;49.230;9.220;2023-02-13T00:35:31;102031.59;;;1.19;100.00
17260;BME280;8746;49.230;9.220;2023-02-13T00:37:57;102022.41;;;1.30;100.00
17260;BME280;8746;49.230;9.220;2023-02-13T00:40:23;102020.09;;;1.39;100.00
17260;BME280;8746;49.230;9.220;2023-02-13T00:42:48;102021.66;;;1.34;100.00
17260;BME280;8746;49.230;9.220;2023-02-13T00:45:14;102019.91;;;1.33;100.00
17260;BME280;8746;49.230;9.220;2023-02-13T00:47:39;102021.59;;;1.31;100.00
17260;BME280;8746;49.230;9.220;2023-02-13T00:50:05;102013.47;;;1.22;100.00
17260;BME280;8746;49.230;9.220;2023-02-13T00:52:30;102021.28;;;1.22;100.00
17260;BME280;8746;49.230;9.220;2023-02-13T00:54:55;102026.41;;;1.19;100.00
17260;BME280;8746;49.230;9.220;2023-02-13T00:57:21;102024.84;;;1.24;100.00
17260;BME280;8746;49.230;9.220;2023-02-13T00:59:46;102031.09;;;1.31;100.00
17260;BME280;8746;49.230;9.220;2023-02-13T01:02:12;102024.84;;;1.24;100.00
17260;BME280;8746;49.230;9.220;2023-02-13T01:04:37;102028.06;;;1.17;100.00
17260;BME280;8746;49.230;9.220;2023-02-13T01:07:02;102029.94;;;1.22;100.00
17260;BME280;8746;49.230;9.220;2023-02-13T01:09:28;102030.47;;;1.10;100.00
17260;BME280;8746;49.230;9.220;2023-02-13T01:11:53;102027.88;;;1.10;100.00
17260;BME280;8746;49.230;9.220;2023-02-13T01:14:19;102031.09;;;1.03;100.00
17260;BME280;8746;49.230;9.220;2023-02-13T01:16:44;102025.78;;;1.00;100.00
17260;BME280;8746;49.230;9.220;2023-02-13T01:19:10;102032.34;;;0.89;100.00
17260;BME280;8746;49.230;9.220;2023-02-13T01:21:35;102022.94;;;0.92;100.00
17260;BME280;8746;49.230;9.220;2023-02-13T01:24:03;102023.81;;;0.93;100.00
17260;BME280;8746;49.230;9.220;2023-02-13T01:26:28;102021.88;;;0.86;100.00
17260;BME280;8746;49.230;9.220;2023-02-13T01:28:54;102030.28;;;0.78;100.00
17260;BME280;8746;49.230;9.220;2023-02-13T01:31:20;102028.31;;;0.71;100.00
17260;BME280;8746;49.230;9.220;2023-02-13T01:33:45;102023.00;;;0.68;100.00
17260;BME280;8746;49.230;9.220;2023-02-13T01:36:11;102026.78;;;0.52;100.00
17260;BME280;8746;49.230;9.220;2023-02-13T01:38:38;102023.94;;;0.44;100.00
17260;BME280;8746;49.230;9.220;2023-02-13T01:41:04;102023.22;;;0.24;100.00
17260;BME280;8746;49.230;9.220;2023-02-13T01:43:49;102016.19;;;-0.03;100.00
17260;BME280;8746;49.230;9.220;2023-02-13T01:46:21;102016.47;;;-0.19;100.00
17260;BME280;8746;49.230;9.220;2023-02-13T01:48:50;102003.59;;;-0.16;100.00
17260;BME280;8746;49.230;9.220;2023-02-13T01:51:26;102011.69;;;-0.08;100.00
17260;BME280;8746;49.230;9.220;2023-02-13T01:54:05;102005.16;;;0.03;100.00
17260;BME280;8746;49.230;9.220;2023-02-13T01:56:47;102014.13;;;0.11;100.00
17260;BME280;8746;49.230;9.220;2023-02-13T01:59:18;102013.72;;;0.25;100.00
17260;BME280;8746;49.230;9.220;2023-02-13T02:01:45;102015.16;;;0.41;100.00
17260;BME280;8746;49.230;9.220;2023-02-13T02:04:27;102018.75;;;0.44;100.00
17260;BME280;8746;49.230;9.220;2023-02-13T02:07:01;102012.78;;;0.23;100.00
17260;BME280;8746;49.230;9.220;2023-02-13T02:09:31;102015.22;;;0.18;100.00
17260;BME280;8746;49.230;9.220;2023-02-13T02:12:01;102010.66;;;0.37;100.00
17260;BME280;8746;49.230;9.220;2023-02-13T02:14:29;102006.38;;;0.37;100.00
17260;BME280;8746;49.230;9.220;2023-02-13T02:16:55;101997.97;;;0.44;100.00
17260;BME280;8746;49.230;9.220;2023-02-13T02:19:58;102003.25;;;0.47;100.00
17260;BME280;8746;49.230;9.220;2023-02-13T02:34:08;102003.63;;;0.84;100.00
17260;BME280;8746;49.230;9.220;2023-02-13T02:36:42;101998.53;;;0.87;100.00
17260;BME280;8746;49.230;9.220;2023-02-13T02:42:17;101992.63;;;0.93;100.00
17260;BME280;8746;49.230;9.220;2023-02-13T02:47:25;101996.00;;;0.90;100.00
17260;BME280;8746;49.230;9.220;2023-02-13T02:52:58;101996.16;;;0.95;100.00
17260;BME280;8746;49.230;9.220;2023-02-13T02:55:50;101999.59;;;0.94;100.00
17260;BME280;8746;49.230;9.220;2023-02-13T02:58:40;102002.00;;;0.88;100.00
17260;BME280;8746;49.230;9.220;2023-02-13T03:01:28;101996.66;;;0.83;100.00
17260;BME280;8746;49.230;9.220;2023-02-13T03:04:32;102006.22;;;0.84;100.00
17260;BME280;8746;49.230;9.220;2023-02-13T03:07:19;102000.78;;;0.76;100.00
17260;BME280;8746;49.230;9.220;2023-02-13T03:09:51;102011.91;;;0.72;100.00
17260;BME280;8746;49.230;9.220;2023-02-13T03:13:04;102014.50;;;0.72;100.00
17260;BME280;8746;49.230;9.220;2023-02-13T03:15:49;102012.63;;;0.68;100.00
17260;BME280;8746;49.230;9.220;2023-02-13T03:18:38;102012.66;;;0.70;100.00
17260;BME280;8746;49.230;9.220;2023-02-13T03:24:52;102011.59;;;0.63;100.00
17260;BME280;8746;49.230;9.220;2023-02-13T03:27:54;102008.81;;;0.58;100.00
17260;BME280;8746;49.230;9.220;2023-02-13T03:33:42;102021.72;;;0.55;100.00
17260;BME280;8746;49.230;9.220;2023-02-13T03:36:27;102025.13;;;0.54;100.00
17260;BME280;8746;49.230;9.220;2023-02-13T03:42:05;102029.44;;;0.54;100.00
17260;BME280;8746;49.230;9.220;2023-02-13T03:44:45;102029.44;;;0.54;100.00
17260;BME280;8746;49.230;9.220;2023-02-13T03:47:33;102030.44;;;0.57;100.00
17260;BME280;8746;49.230;9.220;2023-02-13T03:49:59;102030.22;;;0.51;100.00
17260;BME280;8746;49.230;9.220;2023-02-13T03:55:24;102034.00;;;0.61;100.00
17260;BME280;8746;49.230;9.220;2023-02-13T03:58:18;102035.81;;;0.63;100.00
17260;BME280;8746;49.230;9.220;2023-02-13T04:01:07;102043.09;;;0.72;100.00
17260;BME280;8746;49.230;9.220;2023-02-13T04:03:39;102036.94;;;0.70;100.00
17260;BME280;8746;49.230;9.220;2023-02-13T04:06:15;102043.13;;;0.74;100.00
17260;BME280;8746;49.230;9.220;2023-02-13T04:08:44;102042.91;;;0.68;100.00
17260;BME280;8746;49.230;9.220;2023-02-13T04:11:15;102047.34;;;0.70;100.00
17260;BME280;8746;49.230;9.220;2023-02-13T04:14:31;102042.00;;;0.67;100.00
17260;BME280;8746;49.230;9.220;2023-02-13T04:16:38;102046.28;;;0.65;100.00
17260;BME280;8746;49.230;9.220;2023-02-13T04:19:06;102042.78;;;0.64;100.00
17260;BME280;8746;49.230;9.220;2023-02-13T04:21:34;102048.06;;;0.66;100.00
17260;BME280;8746;49.230;9.220;2023-02-13T04:24:00;102041.22;;;0.70;100.00
17260;BME280;8746;49.230;9.220;2023-02-13T04:26:30;102047.63;;;0.79;100.00
17260;BME280;8746;49.230;9.220;2023-02-13T04:28:57;102047.41;;;0.73;100.00
17260;BME280;8746;49.230;9.220;2023-02-13T04:31:22;102052.63;;;0.73;100.00
17260;BME280;8746;49.230;9.220;2023-02-13T04:33:48;102048.16;;;0.69;100.00
17260;BME280;8746;49.230;9.220;2023-02-13T04:36:13;102057.59;;;0.67;100.00
17260;BME280;8746;49.230;9.220;2023-02-13T04:38:38;102051.28;;;0.85;100.00
17260;BME280;8746;49.230;9.220;2023-02-13T04:41:04;102054.47;;;0.76;100.00
17260;BME280;8746;49.230;9.220;2023-02-13T04:43:29;102050.22;;;0.79;100.00
17260;BME280;8746;49.230;9.220;2023-02-13T04:45:55;102050.75;;;0.95;100.00
17260;BME280;8746;49.230;9.220;2023-02-13T04:48:20;102051.28;;;0.85;100.00
17260;BME280;8746;49.230;9.220;2023-02-13T04:50:46;102056.56;;;0.88;100.00
17260;BME280;8746;49.230;9.220;2023-02-13T04:53:12;102050.19;;;0.78;100.00
17260;BME280;8746;49.230;9.220;2023-02-13T04:55:37;102052.63;;;0.73;100.00
17260;BME280;8746;49.230;9.220;2023-02-13T04:58:03;102051.50;;;0.65;100.00
17260;BME280;8746;49.230;9.220;2023-02-13T05:00:28;102052.31;;;0.64;100.00
17260;BME280;8746;49.230;9.220;2023-02-13T05:03:20;102044.16;;;0.53;100.00
17260;BME280;8746;49.230;9.220;2023-02-13T05:05:45;102055.53;;;0.57;100.00
17260;BME280;8746;49.230;9.220;2023-02-13T05:08:10;102049.69;;;0.62;100.00
17260;BME280;8746;49.230;9.220;2023-02-13T05:10:36;102052.47;;;0.43;100.00
17260;BME280;8746;49.230;9.220;2023-02-13T05:13:01;102049.91;;;0.44;100.00
17260;BME280;8746;49.230;9.220;2023-02-13T05:15:27;102051.69;;;0.45;100.00
17260;BME280;8746;49.230;9.220;2023-02-13T05:17:52;102049.75;;;0.40;100.00
17260;BME280;8746;49.230;9.220;2023-02-13T05:20:18;102050.72;;;0.43;100.00
17260;BME280;8746;49.230;9.220;2023-02-13T05:22:51;102054.53;;;0.29;100.00
17260;BME280;8746;49.230;9.220;2023-02-13T05:25:38;102045.16;;;0.32;100.00
17260;BME280;8746;49.230;9.220;2023-02-13T05:28:04;102054.53;;;0.29;100.00
17260;BME280;8746;49.230;9.220;2023-02-13T05:30:49;102059.34;;;0.18;100.00
17260;BME280;8746;49.230;9.220;2023-02-13T05:33:15;102053.00;;;0.10;100.00
17260;BME280;8746;49.230;9.220;2023-02-13T05:35:40;102049.94;;;-0.03;100.00
17260;BME280;8746;49.230;9.220;2023-02-13T05:38:05;102051.06;;;0.04;100.00
17260;BME280;8746;49.230;9.220;2023-02-13T05:40:31;102050.28;;;0.07;100.00
17260;BME280;8746;49.230;9.220;2023-02-13T05:42:56;102054.66;;;0.08;100.00
17260;BME280;8746;49.230;9.220;2023-02-13T05:45:22;102052.69;;;0.02;100.00
17260;BME280;8746;49.230;9.220;2023-02-13T05:47:47;102051.78;;;0.00;100.00
17260;BME280;8746;49.230;9.220;2023-02-13T05:50:12;102050.84;;;-0.02;100.00
17260;BME280;8746;49.230;9.220;2023-02-13T05:52:38;102058.06;;;0.07;100.00
17260;BME280;8746;49.230;9.220;2023-02-13T05:55:03;102047.03;;;0.12;100.00
17260;BME280;8746;49.230;9.220;2023-02-13T05:57:28;102050.47;;;0.11;100.00
17260;BME280;8746;49.230;9.220;2023-02-13T05:59:54;102050.69;;;0.18;100.00
17260;BME280;8746;49.230;9.220;2023-02-13T06:02:19;102042.22;;;0.23;100.00
17260;BME280;8746;49.230;9.220;2023-02-13T06:04:45;102049.88;;;-0.04;100.00
17260;BME280;8746;49.230;9.220;2023-02-13T06:07:10;102046.09;;;-0.12;100.00
17260;BME280;8746;49.230;9.220;2023-02-13T06:09:35;102053.75;;;-0.17;100.00
17260;BME280;8746;49.230;9.220;2023-02-13T06:12:01;102044.66;;;-0.28;100.00
17260;BME280;8746;49.230;9.220;2023-02-13T06:14:26;102045.41;;;-0.31;100.00
17260;BME280;8746;49.230;9.220;2023-02-13T06:16:51;102044.19;;;-0.41;100.00
17260;BME280;8746;49.230;9.220;2023-02-13T06:19:17;102044.41;;;-0.35;100.00
17260;BME280;8746;49.230;9.220;2023-02-13T06:21:42;102052.97;;;-0.37;100.00
17260;BME280;8746;49.230;9.220;2023-02-13T06:24:07;102044.38;;;-0.36;100.00
17260;BME280;8746;49.230;9.220;2023-02-13T06:26:33;102059.88;;;-0.38;100.00
17260;BME280;8746;49.230;9.220;2023-02-13T06:28:59;102054.44;;;-0.44;100.00
17260;BME280;8746;49.230;9.220;2023-02-13T06:31:24;102058.69;;;-0.46;100.00
17260;BME280;8746;49.230;9.220;2023-02-13T06:33:50;102061.56;;;-0.38;100.00
17260;BME280;8746;49.230;9.220;2023-02-13T06:36:15;102060.78;;;-0.58;100.00
17260;BME280;8746;49.230;9.220;2023-02-13T06:38:40;102057.25;;;-0.60;100.00
17260;BME280;8746;49.230;9.220;2023-02-13T06:41:07;102070.72;;;-0.69;100.00
17260;BME280;8746;49.230;9.220;2023-02-13T06:43:32;102073.56;;;-0.63;100.00
17260;BME280;8746;49.230;9.220;2023-02-13T06:45:58;102070.34;;;-0.78;100.00
17260;BME280;8746;49.230;9.220;2023-02-13T06:48:23;102071.31;;;-0.76;100.00
17260;BME280;8746;49.230;9.220;2023-02-13T06:50:49;102066.94;;;-0.77;100.00
17260;BME280;8746;49.230;9.220;2023-02-13T06:53:17;102075.28;;;-0.85;100.00
17260;BME280;8746;49.230;9.220;2023-02-13T06:55:43;102077.50;;;-0.94;100.00
17260;BME280;8746;49.230;9.220;2023-02-13T06:58:08;102079.16;;;-0.96;100.00
17260;BME280;8746;49.230;9.220;2023-02-13T07:00:33;102073.97;;;-0.96;100.00
17260;BME280;8746;49.230;9.220;2023-02-13T07:03:04;102080.09;;;-0.94;100.00
17260;BME280;8746;49.230;9.220;2023-02-13T07:05:31;102081.03;;;-0.92;100.00
17260;BME280;8746;49.230;9.220;2023-02-13T07:07:56;102079.16;;;-0.96;100.00
17260;BME280;8746;49.230;9.220;2023-02-13T07:10:25;102082.69;;;-0.94;100.00
17260;BME280;8746;49.230;9.220;2023-02-13T07:12:50;102082.13;;;-0.87;100.00
17260;BME280;8746;49.230;9.220;2023-02-13T07:15:16;102075.13;;;-0.89;100.00
17260;BME280;8746;49.230;9.220;2023-02-13T07:17:41;102084.84;;;-0.84;100.00
17260;BME280;8746;49.230;9.220;2023-02-13T07:20:07;102088.06;;;-0.89;100.00
17260;BME280;8746;49.230;9.220;2023-02-13T07:22:33;102092.81;;;-1.00;100.00
17260;BME280;8746;49.230;9.220;2023-02-13T07:24:59;102089.81;;;-1.09;100.00
17260;BME280;8746;49.230;9.220;2023-02-13T07:27:26;102092.03;;;-0.98;100.00
17260;BME280;8746;49.230;9.220;2023-02-13T07:29:55;102092.50;;;-0.87;100.00
17260;BME280;8746;49.230;9.220;2023-02-13T07:32:22;102088.69;;;-0.95;100.00
17260;BME280;8746;49.230;9.220;2023-02-13T07:34:48;102094.38;;;-0.83;100.00
17260;BME280;8746;49.230;9.220;2023-02-13T07:37:13;102093.31;;;-0.88;100.00
17260;BME280;8746;49.230;9.220;2023-02-13T07:39:38;102104.22;;;-0.74;100.00
17260;BME280;8746;49.230;9.220;2023-02-13T07:42:04;102103.16;;;-0.79;100.00
17260;BME280;8746;49.230;9.220;2023-02-13T07:44:30;102101.72;;;-0.93;100.00
17260;BME280;8746;49.230;9.220;2023-02-13T07:46:55;102101.75;;;-0.92;100.00
17260;BME280;8746;49.230;9.220;2023-02-13T07:49:21;102108.03;;;-0.87;100.00
17260;BME280;8746;49.230;9.220;2023-02-13T07:51:46;102103.03;;;-1.03;100.00
17260;BME280;8746;49.230;9.220;2023-02-13T07:54:12;102102.34;;;-0.99;100.00
17260;BME280;8746;49.230;9.220;2023-02-13T07:56:37;102106.06;;;-0.92;100.00
17260;BME280;8746;49.230;9.220;2023-02-13T07:59:02;102105.38;;;-0.88;100.00
17260;BME280;8746;49.230;9.220;2023-02-13T08:01:28;102104.03;;;-0.78;100.00
17260;BME280;8746;49.230;9.220;2023-02-13T08:03:53;102106.56;;;-0.59;100.00
17260;BME280;8746;49.230;9.220;2023-02-13T08:06:19;102101.50;;;-0.56;100.00
17260;BME280;8746;49.230;9.220;2023-02-13T08:08:45;102097.28;;;-0.54;100.00
17260;BME280;8746;49.230;9.220;2023-02-13T08:11:29;102097.53;;;-0.47;100.00
17260;BME280;8746;49.230;9.220;2023-02-13T08:14:14;102096.72;;;-0.46;100.00
17260;BME280;8746;49.230;9.220;2023-02-13T08:16:39;102094.28;;;-0.42;100.00
17260;BME280;8746;49.230;9.220;2023-02-13T08:19:05;102088.34;;;-0.60;100.00
17260;BME280;8746;49.230;9.220;2023-02-13T08:21:30;102094.94;;;-0.69;100.00
17260;BME280;8746;49.230;9.220;2023-02-13T08:23:56;102097.47;;;-0.70;100.00
17260;BME280;8746;49.230;9.220;2023-02-13T08:26:21;102093.09;;;-0.50;100.00
17260;BME280;8746;49.230;9.220;2023-02-13T08:28:47;102087.53;;;-0.59;100.00
17260;BME280;8746;49.230;9.220;2023-02-13T08:31:12;102091.91;;;-0.58;100.00
17260;BME280;8746;49.230;9.220;2023-02-13T08:33:38;102087.25;;;-0.44;100.00
17260;BME280;8746;49.230;9.220;2023-02-13T08:36:05;102088.22;;;-0.42;100.00
17260;BME280;8746;49.230;9.220;2023-02-13T08:38:31;102088.47;;;-0.36;100.00
17260;BME280;8746;49.230;9.220;2023-02-13T08:40:56;102085.56;;;-0.44;100.00
17260;BME280;8746;49.230;9.220;2023-02-13T08:43:22;102082.22;;;-0.41;100.00
17260;BME280;8746;49.230;9.220;2023-02-13T08:45:47;102093.41;;;-0.42;100.00
17260;BME280;8746;49.230;9.220;2023-02-13T08:48:13;102092.00;;;-0.34;100.00
17260;BME280;8746;49.230;9.220;2023-02-13T08:50:38;102086.38;;;-0.22;100.00
17260;BME280;8746;49.230;9.220;2023-02-13T08:53:04;102092.53;;;-0.20;100.00
17260;BME280;8746;49.230;9.220;2023-02-13T08:55:29;102086.75;;;-0.13;100.00
17260;BME280;8746;49.230;9.220;2023-02-13T08:58:01;102088.25;;;0.05;100.00
17260;BME280;8746;49.230;9.220;2023-02-13T09:00:27;102098.84;;;0.34;100.00
17260;BME280;8746;49.230;9.220;2023-02-13T09:02:53;102095.00;;;0.22;100.00
17260;BME280;8746;49.230;9.220;2023-02-13T09:05:18;102098.41;;;0.21;100.00
17260;BME280;8746;49.230;9.220;2023-02-13T09:07:43;102095.50;;;0.13;100.00
17260;BME280;8746;49.230;9.220;2023-02-13T09:10:09;102106.59;;;0.32;100.00
17260;BME280;8746;49.230;9.220;2023-02-13T09:12:34;102099.50;;;0.28;100.00
17260;BME280;8746;49.230;9.220;2023-02-13T09:15:00;102100.81;;;0.39;100.00
17260;BME280;8746;49.230;9.220;2023-02-13T09:17:25;102097.09;;;0.57;100.00
17260;BME280;8746;49.230;9.220;2023-02-13T09:19:50;102094.53;;;0.58;100.00
17260;BME280;8746;49.230;9.220;2023-02-13T09:22:16;102106.69;;;0.84;100.00
17260;BME280;8746;49.230;9.220;2023-02-13T09:24:41;102105.84;;;1.10;100.00
17260;BME280;8746;49.230;9.220;2023-02-13T09:27:07;102110.84;;;1.30;100.00
17260;BME280;8746;49.230;9.220;2023-02-13T09:29:33;102102.59;;;1.43;100.00
17260;BME280;8746;49.230;9.220;2023-02-13T09:31:59;102100.56;;;1.62;100.00
17260;BME280;8746;49.230;9.220;2023-02-13T09:34:24;102099.59;;;1.58;100.00
17260;BME280;8746;49.230;9.220;2023-02-13T09:36:51;102096.94;;;1.57;100.00
17260;BME280;8746;49.230;9.220;2023-02-13T09:39:17;102095.78;;;1.47;100.00
17260;BME280;8746;49.230;9.220;2023-02-13T09:41:43;102096.06;;;1.56;100.00
17260;BME280;8746;49.230;9.220;2023-02-13T09:44:17;102090.59;;;1.76;100.00
17260;BME280;8746;49.230;9.220;2023-02-13T09:50:11;102081.19;;;2.40;100.00
17260;BME280;8746;49.230;9.220;2023-02-13T09:52:39;102085.34;;;2.34;100.00
17260;BME280;8746;49.230;9.220;2023-02-13T09:55:22;102078.91;;;2.53;100.00
17260;BME280;8746;49.230;9.220;2023-02-13T09:58:04;102074.03;;;2.65;100.00
17260;BME280;8746;49.230;9.220;2023-02-13T10:00:36;102069.94;;;3.09;100.00
17260;BME280;8746;49.230;9.220;2023-02-13T10:03:27;102071.19;;;3.63;99.78
17260;BME280;8746;49.230;9.220;2023-02-13T10:06:11;102063.53;;;3.71;95.99
17260;BME280;8746;49.230;9.220;2023-02-13T10:11:35;102073.34;;;4.22;93.96
17260;BME280;8746;49.230;9.220;2023-02-13T10:16:40;102062.53;;;4.48;92.28
17260;BME280;8746;49.230;9.220;2023-02-13T10:19:30;102066.81;;;4.92;89.65
17260;BME280;8746;49.230;9.220;2023-02-13T10:22:04;102055.94;;;5.22;89.26
17260;BME280;8746;49.230;9.220;2023-02-13T10:24:49;102059.75;;;4.89;89.06
17260;BME280;8746;49.230;9.220;2023-02-13T10:27:26;102050.78;;;5.88;85.09
17260;BME280;8746;49.230;9.220;2023-02-13T10:29:56;102051.34;;;6.32;84.22
17260;BME280;8746;49.230;9.220;2023-02-13T10:35:35;102043.34;;;6.19;85.62
17260;BME280;8746;49.230;9.220;2023-02-13T10:38:12;102042.50;;;5.56;84.90
17260;BME280;8746;49.230;9.220;2023-02-13T10:40:47;102035.06;;;5.88;85.84
17260;BME280;8746;49.230;9.220;2023-02-13T10:43:19;102022.84;;;6.64;84.95
17260;BME280;8746;49.230;9.220;2023-02-13T10:59:18;102018.16;;;6.32;81.55
17260;BME280;8746;49.230;9.220;2023-02-13T11:01:56;102009.34;;;7.26;80.12
17260;BME280;8746;49.230;9.220;2023-02-13T11:04:25;102012.47;;;6.78;79.63
17260;BME280;8746;49.230;9.220;2023-02-13T11:09:23;102013.81;;;6.33;80.11
17260;BME280;8746;49.230;9.220;2023-02-13T11:11:48;102013.22;;;6.65;82.09
17260;BME280;8746;49.230;9.220;2023-02-13T11:19:19;102002.78;;;6.71;79.76
17260;BME280;8746;49.230;9.220;2023-02-13T11:21:47;101999.00;;;6.39;81.81
17260;BME280;8746;49.230;9.220;2023-02-13T11:24:20;101987.00;;;6.65;79.92
17260;BME280;8746;49.230;9.220;2023-02-13T11:26:50;101994.28;;;6.04;81.66
17260;BME280;8746;49.230;9.220;2023-02-13T11:29:23;101993.19;;;5.91;84.23
17260;BME280;8746;49.230;9.220;2023-02-13T11:34:40;101994.13;;;5.97;84.37
17260;BME280;8746;49.230;9.220;2023-02-13T11:39:37;101989.53;;;5.77;84.21
17260;BME280;8746;49.230;9.220;2023-02-13T11:42:12;101996.19;;;6.22;83.25
17260;BME280;8746;49.230;9.220;2023-02-13T11:44:39;101984.22;;;6.48;83.30
17260;BME280;8746;49.230;9.220;2023-02-13T11:47:05;101986.63;;;6.24;82.73
17260;BME280;8746;49.230;9.220;2023-02-13T11:49:36;101987.47;;;6.25;83.04
17260;BME280;8746;49.230;9.220;2023-02-13T11:52:11;101981.53;;;6.41;82.53
17260;BME280;8746;49.230;9.220;2023-02-13T11:54:54;101974.03;;;6.80;81.94
17260;BME280;8746;49.230;9.220;2023-02-13T11:57:23;101980.31;;;7.04;80.38
17260;BME280;8746;49.230;9.220;2023-02-13T11:59:51;101979.34;;;6.91;81.64
17260;BME280;8746;49.230;9.220;2023-02-13T12:04:42;101971.59;;;7.06;82.49
17260;BME280;8746;49.230;9.220;2023-02-13T12:09:47;101965.66;;;7.40;80.33
17260;BME280;8746;49.230;9.220;2023-02-13T12:12:25;101961.38;;;7.61;80.27
17260;BME280;8746;49.230;9.220;2023-02-13T12:14:52;101963.13;;;7.56;81.00
17260;BME280;8746;49.230;9.220;2023-02-13T12:17:25;101957.88;;;7.56;79.97
17260;BME280;8746;49.230;9.220;2023-02-13T12:19:53;101959.72;;;7.72;79.22
17260;BME280;8746;49.230;9.220;2023-02-13T12:25:33;101943.97;;;7.88;78.56
17260;BME280;8746;49.230;9.220;2023-02-13T12:28:15;101950.09;;;7.86;78.67
17260;BME280;8746;49.230;9.220;2023-02-13T12:30:58;101945.66;;;7.73;78.32
17260;BME280;8746;49.230;9.220;2023-02-13T12:36:38;101940.41;;;7.65;78.39
17260;BME280;8746;49.230;9.220;2023-02-13T12:39:32;101933.41;;;7.69;78.29
17260;BME280;8746;49.230;9.220;2023-02-13T12:47:17;101929.03;;;7.71;78.09
17260;BME280;8746;49.230;9.220;2023-02-13T12:52:51;101925.59;;;7.92;77.56
17260;BME280;8746;49.230;9.220;2023-02-13T13:01:18;101916.88;;;8.24;77.09
17260;BME280;8746;49.230;9.220;2023-02-13T13:04:11;101914.28;;;8.32;77.11
17260;BME280;8746;49.230;9.220;2023-02-13T13:09:37;101913.38;;;8.31;76.30
17260;BME280;8746;49.230;9.220;2023-02-13T13:17:36;101891.50;;;8.77;73.45
17260;BME280;8746;49.230;9.220;2023-02-13T13:22:49;101887.06;;;8.90;72.56
17260;BME280;8746;49.230;9.220;2023-02-13T13:27:58;101883.59;;;8.90;72.40
17260;BME280;8746;49.230;9.220;2023-02-13T13:30:32;101889.72;;;8.95;72.10
17260;BME280;8746;49.230;9.220;2023-02-13T13:35:31;101884.44;;;9.04;72.77
17260;BME280;8746;49.230;9.220;2023-02-13T13:38:17;101883.53;;;9.07;71.56
17260;BME280;8746;49.230;9.220;2023-02-13T13:51:13;101872.00;;;9.43;70.24
17260;BME280;8746;49.230;9.220;2023-02-13T13:59:19;101869.38;;;9.39;70.29
17260;BME280;8746;49.230;9.220;2023-02-13T14:01:44;101862.28;;;9.53;68.94
17260;BME280;8746;49.230;9.220;2023-02-13T14:11:55;101864.91;;;9.58;68.79
17260;BME280;8746;49.230;9.220;2023-02-13T14:16:58;101865.81;;;9.48;68.56
17260;BME280;8746;49.230;9.220;2023-02-13T14:19:29;101857.91;;;9.48;68.50
17260;BME280;8746;49.230;9.220;2023-02-13T14:25:18;101849.97;;;9.54;68.79
17260;BME280;8746;49.230;9.220;2023-02-13T14:27:58;101845.59;;;9.51;68.65
17260;BME280;8746;49.230;9.220;2023-02-13T14:30:30;101848.25;;;9.46;68.60
17260;BME280;8746;49.230;9.220;2023-02-13T14:33:01;101853.50;;;9.54;68.18
17260;BME280;8746;49.230;9.220;2023-02-13T14:35:36;101846.50;;;9.49;68.39
17260;BME280;8746;49.230;9.220;2023-02-13T14:38:05;101852.63;;;9.57;67.92
17260;BME280;8746;49.230;9.220;2023-02-13T14:45:55;101854.41;;;9.47;67.74
17260;BME280;8746;49.230;9.220;2023-02-13T14:48:34;101842.97;;;9.48;67.98
17260;BME280;8746;49.230;9.220;2023-02-13T14:51:02;101846.47;;;9.53;68.15
17260;BME280;8746;49.230;9.220;2023-02-13T14:53:34;101842.94;;;9.56;67.69
17260;BME280;8746;49.230;9.220;2023-02-13T14:56:07;101842.06;;;9.54;67.47
17260;BME280;8746;49.230;9.220;2023-02-13T14:58:48;101845.63;;;9.50;67.59
17260;BME280;8746;49.230;9.220;2023-02-13T15:03:58;101838.59;;;9.45;68.02
17260;BME280;8746;49.230;9.220;2023-02-13T15:06:29;101845.63;;;9.50;68.38
17260;BME280;8746;49.230;9.220;2023-02-13T15:09:01;101843.88;;;9.45;68.86
17260;BME280;8746;49.230;9.220;2023-02-13T15:11:40;101841.25;;;9.39;68.24
17260;BME280;8746;49.230;9.220;2023-02-13T15:16:47;101836.00;;;9.41;67.74
17260;BME280;8746;49.230;9.220;2023-02-13T15:19:16;101829.91;;;9.31;68.66
17260;BME280;8746;49.230;9.220;2023-02-13T15:21:59;101836.03;;;9.28;69.16
17260;BME280;8746;49.230;9.220;2023-02-13T15:24:34;101841.31;;;9.32;69.46
17260;BME280;8746;49.230;9.220;2023-02-13T15:27:03;101836.06;;;9.22;69.51
17260;BME280;8746;49.230;9.220;2023-02-13T15:29:30;101831.72;;;9.17;69.77
17260;BME280;8746;49.230;9.220;2023-02-13T15:31:55;101830.00;;;9.05;70.50
17260;BME280;8746;49.230;9.220;2023-02-13T15:34:25;101835.22;;;9.12;70.05
17260;BME280;8746;49.230;9.220;2023-02-13T15:36:51;101835.25;;;9.06;70.13
17260;BME280;8746;49.230;9.220;2023-02-13T15:39:20;101837.94;;;9.02;70.07
17260;BME280;8746;49.230;9.220;2023-02-13T15:41:50;101824.75;;;8.95;70.72
17260;BME280;8746;49.230;9.220;2023-02-13T15:44:18;101833.56;;;8.90;70.42
17260;BME280;8746;49.230;9.220;2023-02-13T15:46:49;101835.34;;;8.81;69.98
17260;BME280;8746;49.230;9.220;2023-02-13T15:49:20;101832.72;;;8.72;70.64